< < Back
Terminal Aerodrome Forecast


Current Version              Previous Versions:   1  2  3  4  5  6  7  8  9  

Terminal Aerodrome Forecast

972
FTUS42 KFFC 252321
TAFATL
TAF
KATL 252321Z 2600/2706 15009KT 6SM -SHRA BKN035
      TEMPO 2600/2603 VRB12G22KT 3SM TSRA BR BKN025CB
     FM260300 13007KT P6SM VCSH SCT025 BKN040
     FM260500 13007KT P6SM VCSH OVC018
     FM260800 14007KT P6SM OVC007
     FM261500 15007KT P6SM OVC012
     FM261700 16007KT P6SM -SHRA OVC025
      TEMPO 2620/2624 3SM TSRA BR OVC015CB=



Latest METAR

700
SAUS70 KWBC 260900
MTRATL
METAR KATL 260852Z 14006KT 7SM OVC007 22/20 A3020 RMK AO2 SLP216
T02170200 56008


USA.gov is the U.S. government's official web portal to all federal, state and local government web resources and services.